Latest Weather Observations for Friendly Beaches

IDT60801

Issued at 3:32 pm EST Monday 29 August 2016 (issued every 30 minutes, with the page automatically refreshed every 10 minutes)

About weather observations | Map of weather stations | Latest weather observations for TAS | Other Formats
Station Details ID: 092114 Name: FRIENDLY BEACHES Lat: -42.00 Lon: 148.28 Height: 55.0 m
Data from the previous 72 hours. | See also: Recent months at Friendly Beaches
Date/Time
EST
Temp
°C
App
Temp
°C
Dew
Point
°C
Rel
Hum
%
Delta-T
°C
Wind Press
QNH
hPa
Press
MSL
hPa
Rain since
9am
mm
Dir  Spd
km/h
Gust
km/h
Spd
kts
Gust
kts
29/03:30pm 12.4 9.2 5.1 61 3.4 NE 11 17 6 9 1023.3 1023.3 0.0
29/03:00pm 12.5 8.8 4.7 59 3.6 NE 13 19 7 10 1023.2 1023.2 0.0
29/02:30pm 12.6 9.3 4.8 59 3.6 ENE 11 17 6 9 1023.1 1023.1 0.0
29/02:00pm 12.5 9.2 4.7 59 3.6 ENE 11 17 6 9 1023.0 1023.0 0.0
29/01:30pm 12.8 9.3 3.7 54 4.1 ENE 11 17 6 9 1023.1 1023.1 0.0
29/01:00pm 12.4 9.0 3.9 56 3.8 ENE 11 17 6 9 1023.3 1023.3 0.0
29/12:30pm 11.9 7.9 2.9 54 3.9 ENE 13 17 7 9 1023.7 1023.8 0.0
29/12:00pm 12.2 8.6 2.9 53 4.1 ENE 11 17 6 9 1024.0 1024.1 0.0
29/11:30am 12.4 9.3 3.6 55 3.9 E 9 13 5 7 1024.1 1024.2 0.0
29/11:00am 11.6 8.2 1.8 51 4.2 E 9 15 5 8 1024.2 1024.3 0.0
29/10:30am 11.1 9.0 1.9 53 3.9 W 2 6 1 3 1024.2 1024.3 0.0
29/10:00am 9.9 7.1 1.8 57 3.4 WSW 6 9 3 5 1024.3 1024.4 0.0
29/09:30am 8.4 5.5 1.3 61 2.9 W 6 11 3 6 1024.5 1024.6 0.0
29/09:00am 6.9 3.8 1.4 68 2.2 W 7 11 4 6 1024.6 1024.7 0.0
29/08:30am 5.5 2.3 0.7 71 1.9 W 7 9 4 5 1024.4 1024.5 0.0
29/08:00am 4.0 0.4 0.3 77 1.4 WNW 9 11 5 6 1024.3 1024.4 0.0
29/07:30am 3.5 -0.6 0.0 78 1.3 WNW 11 15 6 8 1024.0 1024.1 0.0
29/07:00am 2.9 -1.5 0.1 82 1.0 WNW 13 17 7 9 1023.6 1023.7 0.0
29/06:30am 2.1 -2.4 -0.2 85 0.8 WNW 13 17 7 9 1023.3 1023.3 0.0
29/06:00am 1.8 -2.7 0.0 88 0.7 WNW 13 15 7 8 1023.1 1023.1 0.0
29/05:30am 1.8 -2.7 0.0 88 0.7 WNW 13 15 7 8 1022.9 1022.9 0.0
29/05:00am 2.4 -1.9 0.9 90 0.6 WNW 13 17 7 9 1022.7 1022.7 0.0
29/04:30am 2.6 -1.4 0.7 87 0.7 WNW 11 15 6 8 1022.4 1022.4 0.0
29/04:00am 2.9 -1.4 1.0 87 0.7 WNW 13 17 7 9 1022.1 1022.1 0.0
29/03:30am 3.0 -1.0 0.6 84 0.9 WNW 11 15 6 8 1021.7 1021.7 0.0
29/03:00am 2.8 -1.6 0.2 83 1.0 WNW 13 15 7 8 1021.5 1021.5 0.0
29/02:30am 2.5 -1.9 0.1 84 0.9 WNW 13 15 7 8 1021.6 1021.6 0.0
29/02:00am 2.9 -1.5 0.1 82 1.0 WNW 13 15 7 8 1021.4 1021.4 0.0
29/01:30am 2.9 -1.1 0.3 83 1.0 WNW 11 13 6 7 1021.6 1021.6 0.0
29/01:00am 3.5 -0.4 0.9 83 1.0 WNW 11 13 6 7 1021.6 1021.6 0.0
29/12:30am 3.3 -0.6 0.9 84 0.9 WNW 11 13 6 7 1021.4 1021.4 0.0
29/12:00am 3.8 0.0 1.5 85 0.9 W 11 13 6 7 1021.2 1021.2 0.0
 
Date/Time
EST
Temp
°C
App
Temp
°C
Dew
Point
°C
Rel
Hum
%
Delta-T
°C
Wind Press
QNH
hPa
Press
MSL
hPa
Rain since
9am
mm
Dir  Spd
km/h
Gust
km/h
Spd
kts
Gust
kts
28/11:30pm 3.9 0.0 1.3 83 1.0 WNW 11 13 6 7 1021.2 1021.2 0.0
28/11:00pm 3.6 -0.3 1.0 83 1.0 WNW 11 11 6 6 1020.9 1020.9 0.0
28/10:30pm 4.2 0.6 0.9 79 1.3 W 9 11 5 6 1020.9 1020.9 0.0
28/10:00pm 3.8 0.6 0.8 81 1.1 W 7 9 4 5 1020.8 1020.8 0.0
28/09:30pm 4.5 1.7 -0.1 72 1.7 WNW 4 6 2 3 1020.4 1020.4 0.0
28/09:00pm 7.0 5.0 0.2 62 2.7 CALM 0 0 0 0 1020.0 1020.0 0.0
28/08:30pm 6.0 3.6 -0.1 65 2.3 NW 2 4 1 2 1019.7 1019.8 0.0
28/08:00pm 6.8 4.1 0.0 62 2.6 WNW 4 6 2 3 1019.2 1019.3 0.0
28/07:30pm 6.3 3.2 0.0 64 2.4 NNW 6 7 3 4 1018.9 1019.0 0.0
28/07:00pm 7.3 4.1 0.5 62 2.7 WNW 7 9 4 5 1018.7 1018.8 0.0
28/06:30pm 7.6 4.4 0.8 62 2.7 WSW 7 7 4 4 1018.4 1018.5 0.0
28/06:00pm 7.6 4.5 0.1 59 2.9 WSW 6 7 3 4 1018.0 1018.1 0.0
28/05:30pm 8.9 5.6 0.4 55 3.4 SW 7 9 4 5 1017.4 1017.5 0.0
28/05:00pm 10.6 7.3 0.1 48 4.3 WSW 7 9 4 5 1016.9 1017.0 0.0
28/04:30pm 11.3 7.5 -0.8 43 4.8 WSW 9 15 5 8 1016.8 1016.9 0.0
28/04:00pm 11.7 8.6 0.2 45 4.7 SW 6 11 3 6 1016.6 1016.7 0.0
28/03:30pm 11.6 7.9 -0.2 44 4.8 SW 9 17 5 9 1016.5 1016.6 0.0
28/03:00pm 12.3 8.5 -0.9 40 5.3 SSW 9 17 5 9 1016.4 1016.5 0.0
28/02:30pm 11.7 7.4 -1.8 39 5.3 WSW 11 20 6 11 1016.3 1016.4 0.0
28/02:00pm 11.9 7.6 -1.6 39 5.3 WSW 11 22 6 12 1016.4 1016.5 0.0
28/01:30pm 11.7 6.6 -1.8 39 5.3 WSW 15 30 8 16 1016.2 1016.3 0.0
28/01:00pm 11.8 7.2 -1.3 40 5.2 WSW 13 28 7 15 1016.4 1016.5 0.0
28/12:30pm 11.4 6.7 -1.7 40 5.1 WSW 13 22 7 12 1016.6 1016.7 0.0
28/12:00pm 10.3 5.2 -1.7 43 4.7 WSW 15 24 8 13 1016.7 1016.8 0.0
28/11:30am 10.7 5.7 -1.0 44 4.6 WSW 15 30 8 16 1016.7 1016.8 0.0
28/11:00am 9.7 5.3 0.1 51 3.9 SW 13 20 7 11 1016.9 1017.0 0.0
28/10:30am 9.0 3.1 -1.1 49 3.9 SW 20 33 11 18 1016.7 1016.8 0.0
28/10:00am 10.5 5.3 0.0 48 4.2 SW 17 32 9 17 1016.3 1016.4 0.0
28/09:30am 9.7 4.1 -0.2 50 4.0 SW 19 30 10 16 1016.1 1016.2 0.0
28/09:00am 8.9 4.6 1.1 58 3.2 SW 13 22 7 12 1015.8 1015.9 0.0
28/08:30am 8.0 4.2 2.0 66 2.5 SW 11 17 6 9 1015.6 1015.7 0.0
28/08:00am 7.3 3.2 2.2 70 2.1 SW 13 20 7 11 1014.9 1015.0 0.0
28/07:30am 6.9 2.4 2.0 71 2.0 SW 15 24 8 13 1014.1 1014.2 0.0
28/07:00am 6.9 1.6 1.6 69 2.1 SSW 19 30 10 16 1013.6 1013.7 0.0
28/06:30am 7.0 1.2 2.1 71 2.0 SW 22 35 12 19 1012.7 1012.8 0.0
28/06:00am 7.2 1.7 2.1 70 2.1 SW 20 33 11 18 1011.9 1012.0 0.0
28/05:30am 7.4 2.6 2.7 72 2.0 SSW 17 32 9 17 1011.4 1011.5 0.0
28/05:00am 7.8 1.7 2.9 71 2.1 SW 24 37 13 20 1010.6 1010.7 0.0
28/04:30am 8.2 2.6 3.3 71 2.1 SW 22 39 12 21 1009.8 1009.9 0.0
28/04:00am 8.9 1.0 2.3 63 2.8 SW 33 54 18 29 1008.8 1008.9 0.0
28/03:59am 8.9 1.2 2.3 63 2.8 SW 32 54 17 29 1008.7 1008.8 0.0
28/03:54am 9.5 3.3 2.4 61 3.0 SW 24 52 13 28 1008.6 1008.7 0.0
28/03:30am 10.4 5.5 5.0 69 2.5 WSW 20 35 11 19 1007.6 1007.6 0.0
28/03:00am 11.3 6.8 6.0 70 2.5 WSW 19 35 10 19 1007.3 1007.3 0.0
28/02:30am 11.6 7.1 6.3 70 2.5 W 19 35 10 19 1006.5 1006.5 0.0
28/02:00am 12.0 5.8 6.3 68 2.7 WNW 28 46 15 25 1005.9 1005.9 0.0
28/01:30am 12.0 5.8 6.1 67 2.8 WNW 28 46 15 25 1005.3 1005.3 0.0
28/01:00am 12.4 6.1 5.8 64 3.1 NW 28 61 15 33 1005.3 1005.3 0.0
28/12:55am 12.4 6.1 5.8 64 3.1 WNW 28 61 15 33 1005.6 1005.6 0.0
28/12:30am 12.4 7.2 5.3 62 3.3 NW 22 43 12 23 1005.9 1005.9 0.0
28/12:00am 12.4 8.4 4.9 60 3.5 WNW 15 28 8 15 1006.0 1006.0 0.0
 
Date/Time
EST
Temp
°C
App
Temp
°C
Dew
Point
°C
Rel
Hum
%
Delta-T
°C
Wind Press
QNH
hPa
Press
MSL
hPa
Rain since
9am
mm
Dir  Spd
km/h
Gust
km/h
Spd
kts
Gust
kts
27/11:30pm 12.6 7.3 5.1 60 3.5 NW 22 43 12 23 1006.1 1006.1 0.0
27/11:00pm 12.6 7.9 5.1 60 3.5 NW 19 39 10 21 1006.1 1006.1 0.0
27/10:30pm 12.6 8.3 5.3 61 3.4 NW 17 32 9 17 1006.9 1006.9 0.0
27/10:00pm 12.6 6.9 5.1 60 3.5 NNW 24 43 13 23 1007.4 1007.4 0.0
27/09:55pm 12.5 7.1 4.7 59 3.6 NNW 22 41 12 22 1007.5 1007.5 0.0
27/09:30pm 11.9 9.3 4.2 59 3.5 NNW 7 20 4 11 1008.2 1008.2 0.0
27/09:00pm 11.4 8.6 3.4 58 3.5 NNW 7 13 4 7 1009.0 1009.1 0.0
27/08:30pm 11.8 7.9 3.6 57 3.6 NW 13 24 7 13 1009.2 1009.3 0.0
27/08:00pm 11.8 7.2 3.6 57 3.7 NW 17 39 9 21 1009.3 1009.4 0.0
27/07:30pm 11.9 7.0 4.2 59 3.5 WNW 19 35 10 19 1009.6 1009.7 0.0
27/07:00pm 11.9 7.4 4.4 60 3.4 NW 17 35 9 19 1009.4 1009.5 0.0
27/06:30pm 12.0 7.2 4.7 61 3.3 WNW 19 44 10 24 1009.4 1009.5 0.0
27/06:00pm 12.3 7.6 5.2 62 3.3 NW 19 35 10 19 1009.3 1009.4 0.0
27/05:30pm 12.5 7.8 5.0 60 3.5 NW 19 35 10 19 1009.5 1009.6 0.0
27/05:00pm 12.9 8.0 5.1 59 3.6 WNW 20 43 11 23 1009.5 1009.6 0.0
27/04:30pm 13.1 8.4 5.0 58 3.8 NW 19 41 10 22 1009.2 1009.3 0.0
27/04:00pm 13.2 8.6 5.4 59 3.7 NW 19 35 10 19 1008.9 1009.0 0.0
27/03:30pm 13.5 9.1 4.9 56 4.0 NW 17 35 9 19 1009.0 1009.1 0.0
27/03:00pm 13.3 8.6 5.0 57 3.9 WNW 19 32 10 17 1009.3 1009.4 0.0
27/02:30pm 13.2 8.3 5.1 58 3.8 NW 20 46 11 25 1009.4 1009.5 0.0
27/02:00pm 13.4 9.1 5.1 57 3.9 NW 17 30 9 16 1009.7 1009.8 0.0
27/01:30pm 13.5 8.8 5.2 57 3.9 NW 19 32 10 17 1010.1 1010.2 0.0
27/01:00pm 14.0 8.0 5.1 55 4.2 NW 26 48 14 26 1010.3 1010.4 0.0
27/12:30pm 14.6 8.6 5.1 53 4.5 WNW 26 39 14 21 1010.2 1010.3 0.0
27/12:00pm 14.8 9.8 4.8 51 4.7 WNW 20 41 11 22 1010.7 1010.8 0.0
27/11:30am 14.9 9.8 4.3 49 4.9 NW 20 35 11 19 1011.1 1011.2 0.0
27/11:00am 14.9 10.0 4.3 49 4.9 NW 19 37 10 20 1011.7 1011.8 0.0
27/10:30am 14.0 8.5 3.8 50 4.6 NW 22 41 12 22 1012.0 1012.1 0.0
27/10:00am 13.6 9.9 4.2 53 4.3 NW 13 22 7 12 1012.1 1012.2 0.0
27/09:30am 12.8 8.3 4.0 55 4.0 NW 17 28 9 15 1012.1 1012.2 0.0
27/09:00am 11.7 6.2 4.0 59 3.5 NW 22 44 12 24 1012.4 1012.5 0.0
27/08:30am 11.0 5.0 3.5 60 3.3 NW 24 44 13 24 1012.4 1012.5 0.0
27/08:00am 10.7 5.5 3.7 62 3.1 NW 20 35 11 19 1012.3 1012.4 0.0
27/07:30am 9.7 4.6 4.1 68 2.5 NW 20 35 11 19 1012.2 1012.3 0.0
27/07:00am 9.6 4.1 4.0 68 2.5 W 22 44 12 24 1012.5 1012.6 0.0
27/06:30am 9.0 4.4 3.8 70 2.3 WNW 17 28 9 15 1012.0 1012.1 0.0
27/06:00am 8.2 5.1 3.7 73 1.9 WSW 9 17 5 9 1012.3 1012.4 0.0
27/05:30am 8.9 3.7 3.7 70 2.3 WNW 20 35 11 19 1012.5 1012.6 0.0
27/05:00am 8.8 4.6 3.8 71 2.2 W 15 26 8 14 1012.4 1012.5 0.0
27/04:30am 9.0 4.4 3.6 69 2.3 WSW 17 28 9 15 1012.8 1012.9 0.0
27/04:00am 7.8 5.0 3.3 73 1.9 W 7 15 4 8 1012.6 1012.7 0.0
27/03:30am 7.3 4.7 3.2 75 1.7 WSW 6 9 3 5 1012.5 1012.6 0.0
27/03:00am 7.3 5.3 2.4 71 2.0 W 2 7 1 4 1012.3 1012.4 0.0
27/02:30am 8.0 5.1 2.5 68 2.3 NW 7 11 4 6 1012.7 1012.8 0.0
27/02:00am 8.1 5.2 2.6 68 2.3 NW 7 11 4 6 1012.9 1013.0 0.0
27/01:30am 8.6 5.7 2.8 67 2.5 NW 7 15 4 8 1013.1 1013.2 0.0
27/01:00am 8.7 5.4 2.7 66 2.5 N 9 15 5 8 1013.3 1013.4 0.0
27/12:30am 9.1 5.1 2.9 65 2.6 NNW 13 17 7 9 1013.5 1013.6 0.0
27/12:00am 9.4 6.1 2.7 63 2.9 NW 9 17 5 9 1013.7 1013.8 0.0
 
Date/Time
EST
Temp
°C
App
Temp
°C
Dew
Point
°C
Rel
Hum
%
Delta-T
°C
Wind Press
QNH
hPa
Press
MSL
hPa
Rain since
9am
mm
Dir  Spd
km/h
Gust
km/h
Spd
kts
Gust
kts
26/11:30pm 9.4 6.6 2.9 64 2.8 NNW 7 13 4 7 1013.7 1013.8 0.0
26/11:00pm 10.0 6.5 3.3 63 2.9 NW 11 19 6 10 1013.6 1013.7 0.0
26/10:30pm 10.0 6.9 3.5 64 2.8 NNW 9 20 5 11 1013.6 1013.7 0.0
26/10:00pm 9.9 6.4 3.6 65 2.8 NW 11 17 6 9 1013.6 1013.7 0.0
26/09:30pm 9.9 6.9 4.1 67 2.6 NW 9 19 5 10 1013.7 1013.8 0.0
26/09:00pm 9.6 6.9 3.8 67 2.5 NW 7 13 4 7 1013.9 1014.0 0.0
26/08:30pm 9.7 7.0 3.9 67 2.6 NW 7 11 4 6 1013.6 1013.7 0.0
26/08:00pm 9.6 6.9 3.8 67 2.5 NW 7 9 4 5 1013.4 1013.5 0.0
26/07:30pm 9.5 6.8 3.7 67 2.5 NW 7 9 4 5 1013.4 1013.5 0.0
26/07:00pm 10.3 7.7 4.0 65 2.8 WNW 7 9 4 5 1013.2 1013.3 0.0
26/06:30pm 10.7 8.1 4.2 64 2.9 WNW 7 11 4 6 1013.0 1013.1 0.0
26/06:00pm 10.9 8.3 4.1 63 3.0 NW 7 9 4 5 1012.7 1012.8 0.0
26/05:30pm 12.1 9.5 4.3 59 3.5 NW 7 13 4 7 1012.4 1012.5 0.0
26/05:00pm 14.0 11.4 4.3 52 4.5 NW 7 11 4 6 1012.1 1012.2 0.0
26/04:30pm 15.2 13.2 4.3 48 5.1 NW 4 9 2 5 1011.9 1012.0 0.0
26/04:00pm 15.3 12.6 3.8 46 5.3 WSW 7 15 4 8 1011.9 1012.0 0.0

Other Formats:

Comma delimited format used in spreadsheet applications
http://www.bom.gov.au/fwo/IDT60801/IDT60801.94987.axf

JavaScript Object Notation format (JSON) in row-major order
http://www.bom.gov.au/fwo/IDT60801/IDT60801.94987.json